Terminal Aerodrome Forecast
Issued by NWS

Home | Current Version | Previous Version | Text Only | Print | Product List | Glossary On
Versions: 1 2 3 4 5 6 7 8 9 10 11 12 13 14 15 16 17 18 19 20
000
FTUS41 KCAR 231330 AAA
TAFBHB
TAF AMD
KBHB 231330Z 2314/2412 VRB03KT P6SM SCT025
     FM231600 VRB03KT P6SM SKC
     FM231900 21008KT P6SM SKC
     FM240500 00000KT 2SM BR FEW003=

USA.gov is the U.S. government's official web portal to all federal, state and local government web resources and services.